Landels-Hill Big Creek Reserve Entrance, California Weather observations

Data are for 10 minute period ending at time listed.
 Day   Time   Solar   Ave.   Ave.  Ave.  Vector  Max.   Baro.   Total    
  of    of     Rad.   Air    Rel.  Wind   Wind   Wind  Press.  Precip.   
Year   Day            Temp.  Hum.  Speed  Dir.   Gust                    
2014   (PST)  Kw/m2    F      %     mph   deg.    mph    mb.     in.     
-------------------------------------------------------------------------
 207   20:10   0.00   60.8    95    1.7   198     4.0   1010.9    0.00 
 207   20:20   0.00   60.8    96    0.9   199     3.2   1011.0    0.00 
 207   20:30   0.00   60.8    95    1.0   195     3.3   1011.0    0.00 
 207   20:40   0.00   60.7    96    2.2   180     4.7   1011.0    0.00 
 207   20:50   0.00   60.7    96    1.0   211     3.7   1011.1    0.00 
 207   21:00   0.00   60.7    96    1.1   198     2.8   1011.1    0.00 
 207   21:10   0.00   60.6    96    1.0   218     3.4   1011.0    0.00 
 207   21:20   0.00   60.6    96    1.9   174     5.8   1011.1    0.00 
 207   21:30   0.00   60.3    96    1.7   185     4.9   1011.2    0.00 
 207   21:40   0.00   60.2    96    0.4   184     2.9   1011.4    0.00 
 207   21:50   0.00   60.4    96    0.2    67     1.6   1011.3    0.00 
 207   22:00   0.00   60.3    96    1.2   166     3.4   1011.2    0.00 
 207   22:10   0.00   60.3    96    0.2    25     1.9   1011.5    0.00 
 207   22:20   0.00   60.3    96    0.1   335     1.0   1011.7    0.00 
 207   22:30   0.00   60.3    96    0.1   302     0.7   1011.7    0.00 
 207   22:40   0.00   60.3    96    0.0     0     0.0   1011.6    0.00 
 207   22:50   0.00   60.3    96    0.5   219     3.1   1011.4    0.00 
 207   23:00   0.00   60.2    96    0.7   152     2.9   1011.4    0.00 
 207   23:10   0.00   60.3    96    0.2   346     1.8   1011.4    0.00 
 207   23:20   0.00   60.3    96    0.1   306     0.7   1011.3    0.00 
 207   23:30   0.00   60.3    96    0.5    32     2.0   1011.1    0.00 
 207   23:40   0.00   60.1    96    1.5   301     5.4   1010.8    0.00 
 207   23:50   0.00   60.1    96    2.3   165     5.3   1010.9    0.00 
 208    0:00   0.00   60.0    96    1.3   150     3.7   1011.0    0.00 
 208    0:10   0.00   60.0    97    0.9   175     3.1   1011.1    0.00 
 208    0:20   0.00   60.0    97    1.1   143     2.6   1011.3    0.00 
 208    0:30   0.00   60.1    97    0.3   203     1.6   1011.5    0.00 
 208    0:40   0.00   60.1    97    0.1   232     1.2   1011.6    0.00 
 208    0:50   0.00   60.1    97    0.5   312     1.8   1011.7    0.00 
 208    1:00   0.00   60.1    97    0.2   274     1.8   1011.9    0.00 
 208    1:10   0.00   60.1    97    1.1   125     3.0   1012.1    0.00 
 208    1:20   0.00   60.0    97    0.6   127     1.9   1012.2    0.00 
 208    1:30   0.00   60.1    97    0.0   360     0.4   1012.0    0.00 
 208    1:40   0.00   60.2    97    0.2   271     1.8   1011.7    0.00 
 208    1:50   0.00   60.1    97    1.0   300     2.9   1011.5    0.00 
 208    2:00   0.00   59.9    97    1.2   199     3.9   1011.3    0.00 
 208    2:10   0.00   59.8    97    2.2   156     6.4   1011.2    0.00 
 208    2:20   0.00   59.7    97    1.9   163     5.4   1011.4    0.00 
 208    2:30   0.00   59.6    97    1.3   106     2.9   1011.5    0.00 
 208    2:40   0.00   59.7    97    0.4   186     2.1   1011.5    0.00 
 208    2:50   0.00   59.7    97    1.2    15     4.6   1011.1    0.00 
 208    3:00   0.00   59.7    97    1.2   304     4.1   1011.0    0.00 
 208    3:10   0.00   59.7    96    0.3    30     1.7   1010.9    0.00 
 208    3:20   0.00   59.5    96    2.2    47     6.6   1010.8    0.00 
 208    3:30   0.00   59.5    96    2.3    12     6.1   1010.9    0.00 
 208    3:40   0.00   59.5    96    2.2    42     4.9   1010.9    0.00 
 208    3:50   0.00   59.6    96    1.7   195     5.7   1011.1    0.00 
 208    4:00   0.00   59.5    96    0.4    54     1.5   1011.0    0.00 
 208    4:10   0.00   59.3    96    0.6   164     2.3   1011.2    0.00 
 208    4:20   0.00   59.2    96    0.7   186     2.6   1011.3    0.00 
 208    4:30   0.00   59.2    96    0.4   131     1.9   1011.4    0.00 
 208    4:40   0.00   59.2    96    0.4   100     1.6   1011.4    0.00 
 208    4:50   0.00   59.0    96    0.6     4     2.0   1011.2    0.00 
 208    5:00   0.00   59.0    96    1.8    31     8.0   1011.1    0.00 
 208    5:10   0.00   58.6    96    2.4    36     6.3   1010.9    0.00 
 208    5:20   0.01   58.4    96    2.3   349     7.9   1010.8    0.00 
 208    5:30   0.01   58.4    95    2.4    16     7.3   1010.8    0.00 
 208    5:40   0.03   58.7    94    2.2   160     5.3   1011.0    0.00 
 208    5:50   0.03   58.8    93    1.4    55     4.2   1011.1    0.00 
 208    6:00   0.02   59.1    94    0.3   167     1.6   1011.5    0.00 
 208    6:10   0.03   59.0    94    1.3   123     5.3   1011.9    0.00 
 208    6:20   0.03   59.0    95    0.7   143     2.8   1012.1    0.00 
 208    6:30   0.06   59.1    95    0.6   142     2.7   1012.0    0.00 
 208    6:40   0.09   59.4    96    1.3   156     3.2   1012.1    0.00 
 208    6:50   0.07   59.8    96    1.0   182     3.1   1012.2    0.00 
 208    7:00   0.10   60.1    95    1.2     6     4.7   1012.2    0.00 
 208    7:10   0.08   60.5    95    2.0   169     4.6   1012.2    0.00 
 208    7:20   0.07   60.2    94    1.4   160     3.5   1012.2    0.00 
 208    7:30   0.06   60.3    94    2.2   161     5.7   1012.3    0.00 
 208    7:40   0.07   60.1    94    1.9   144     3.7   1012.5    0.00 
 208    7:50   0.10   60.4    94    0.7   130     3.0   1012.5    0.00 
 208    8:00   0.12   60.8    94    0.5   165     2.3   1012.5    0.00 
 208    8:10   0.14   61.0    93    1.0   223     3.4   1012.5    0.00 
 208    8:20   0.20   61.4    92    1.0   207     3.3   1012.5    0.00 
 208    8:30   0.19   61.8    91    1.0   164     2.7   1012.4    0.00 
 208    8:40   0.20   62.1    89    1.4   127     3.9   1012.5    0.00 
 208    8:50   0.21   61.7    89    1.9   123     3.8   1012.6    0.00 
 208    9:00   0.19   61.8    88    1.5   112     3.3   1012.5    0.00 
 208    9:10   0.25   62.0    88    1.8   169     3.9   1012.4    0.00 
 208    9:20   0.69   62.9    86    1.9   189     5.0   1012.2    0.00 
 208    9:30   0.64   64.9    82    1.7   168     4.6   1012.4    0.00 
 208    9:40   0.65   65.5    79    1.7   164     4.3   1012.7    0.00 
 208    9:50   0.69   65.8    78    1.7   154     5.0   1012.8    0.00 
 208   10:00   0.76   66.0    78    2.4   175     5.3   1013.0    0.00 
 208   10:10   0.75   65.9    79    2.6   130     6.1   1013.1    0.00 
 208   10:20   0.75   65.4    80    2.9   132     5.8   1013.1    0.00 
 208   10:30   0.66   64.6    82    3.3   166     8.8   1013.1    0.00 
 208   10:40   0.72   65.3    80    3.7   146    10.4   1013.1    0.00 
 208   10:50   0.58   64.5    82    2.7   168     7.2   1013.1    0.00 
 208   11:00   0.49   64.5    82    2.2   135     4.5   1013.1    0.00 
 208   11:10   0.41   63.4    85    2.5    45     6.4   1013.1    0.00 
 208   11:20   0.63   64.1    85    1.6    89     5.0   1013.1    0.00 
 208   11:30   0.58   64.9    82    1.5    54     3.4   1013.1    0.00 
 208   11:40   0.83   66.0    79    1.6   156     4.2   1013.1    0.00 
 208   11:50   0.65   66.1    78    1.9   145     5.3   1013.2    0.00 
 208   12:00   0.51   65.2    80    1.6   131     5.1   1013.2    0.00 
 208   12:10   0.48   65.8    79    0.9    29     2.9   1013.3    0.00 
 208   12:20   0.53   66.4    78    1.2    44     4.4   1013.3    0.00 
 208   12:30   0.81   66.8    77    1.1   193     5.6   1013.3    0.00 
 208   12:40   0.82   67.2    75    2.1   181     5.2   1013.4    0.00 
 208   12:50   0.92   66.3    78    1.5   209     5.3   1013.4    0.00 
 208   13:00   0.89   67.4    75    2.0   176     5.8   1013.1    0.00 
 208   13:10   0.89   67.0    76    1.8   157     5.6   1013.0    0.00 
 208   13:20   0.87   68.0    74    2.1   179     5.8   1012.9    0.00 
 208   13:30   0.87   67.9    74    1.9   177     4.9   1012.9    0.00 
 208   13:40   0.86   68.2    73    2.2   187     6.6   1013.1    0.00 
 208   13:50   0.85   67.7    74    2.8   192     5.8   1013.1    0.00 
 208   14:00   0.83   67.9    74    1.7   190     4.9   1013.1    0.00 
 208   14:10   0.82   67.8    74    2.8   162     6.5   1013.2    0.00 
 208   14:20   0.80   67.8    74    2.6   162     6.2   1013.2    0.00 
 208   14:30   0.79   67.6    75    2.2   158     6.1   1013.1    0.00 
 208   14:40   0.77   67.9    74    2.3   184     7.3   1013.0    0.00 
 208   14:50   0.74   68.1    74    2.3   183     6.3   1012.8    0.00 
 208   15:00   0.72   68.9    72    1.6   198     4.5   1012.6    0.00 
 208   15:10   0.70   68.1    74    1.3   196     3.7   1012.5    0.00 
 208   15:20   0.67   67.6    74    2.0   131     5.1   1012.6    0.00 
 208   15:30   0.65   67.4    75    1.7   164     5.5   1012.6    0.00 
 208   15:40   0.62   67.8    74    1.5   196     4.5   1012.5    0.00 
 208   15:50   0.59   67.1    75    3.8   166     6.9   1012.4    0.00 
 208   16:00   0.56   66.3    78    1.9   185     5.9   1012.5    0.00 
 208   16:10   0.54   68.1    73    1.2   220     3.6   1012.6    0.00 
 208   16:20   0.51   69.3    71    1.3   206     3.7   1012.6    0.00 
 208   16:30   0.48   68.7    72    1.3   191     4.7   1012.7    0.00 
 208   16:40   0.44   67.8    74    1.4   224     4.4   1012.7    0.00 
 208   16:50   0.41   68.0    74    1.1   232     4.0   1012.7    0.00 
 208   17:00   0.36   68.5    72    1.8   200     4.3   1012.7    0.00 
 208   17:10   0.34   67.7    74    1.6   199     4.5   1012.8    0.00 
 208   17:20   0.20   67.4    75    0.7   209     3.7   1012.8    0.00 
 208   17:30   0.14   66.1    78    1.1   174     3.9   1012.9    0.00 
 208   17:40   0.10   65.6    79    0.8   199     3.9   1012.8    0.00 
 208   17:50   0.09   65.0    81    0.7   143     2.6   1012.8    0.00 
 208   18:00   0.07   64.8    81    0.5   268     1.9   1012.5    0.00 
 208   18:10   0.06   64.7    82    0.9   210     2.3   1012.3    0.00 
 208   18:20   0.06   64.4    82    0.8   209     3.4   1012.2    0.00 
 208   18:30   0.04   63.6    84    1.3   129     2.7   1012.1    0.00 
 208   18:40   0.03   63.1    86    1.1   111     2.9   1012.0    0.00 
 208   18:50   0.03   63.0    86    1.8   141     4.3   1011.9    0.00 
 208   19:00   0.01   62.8    87    3.0   170     5.3   1012.0    0.00 
 208   19:10   0.01   62.8    87    2.5   175     6.4   1012.0    0.00 
 208   19:20   0.01   62.8    87    1.1   185     4.1   1011.9    0.00 
 208   19:30   0.00   62.7    87    1.4   183     4.3   1012.0    0.00 
 208   19:40   0.00   62.4    87    1.7   156     6.5   1012.0    0.00 
 208   19:50   0.00   62.2    88    1.8   172     4.5   1012.1    0.00 
 208   20:00   0.00   62.1    88    2.2   174     6.7   1012.2    0.00 

Return to Big Creek Reserve Entrance graphs page.


Western Regional Climate Center,wrcc@dri.edu